Rechercher aéroport 
image banner adimage banner ad
image banner ad

SIPF - Hotel Glória Heliport

Situé à Rio De Janeiro, Brazil

ICAO - SIPF, IATA -

Données fournies par Airmate  

Information générale

Coordonnées: S29°26'53" W51°17'43"
Élévation : 131 feet MSL.
Variation magnétique : -17° East
Voir autres Aéroports à Rio Grande do Sul

Données opérationnelles

Accessible au public
Heure actuelle UTC:
Heure actuelle locale:
METAR: SBCX 301500Z 09004KT 6000 -TSRA FEW002 FEW040CB OVC080 19/18 Q1015
Voir NOTAMs / SUP AIP / TFR affectant cet aéroport [VIEW]
Fréquences de communication: [VIEW]

Pistes:

Identifiant RWYQFULongueur (ft)Largeur (ft)SurfaceLDA (ft)
0998459GRASS
2798459GRASS

Coordonnées de l'aéroport

Adresse: Rio De Janeiro Brazil

Vue satellite de SIPF